Ackley, IA

1:26 PM CDT on August 21, 2014 (GMT -0500)
Jensen Farm | Change Station
CLOSE
Current Station
Personal Weather Station
Location: Iowa Falls, IA
Elevation: 1129 ft
Nearby Weather Stations

Elev 1129 ft 42.50 °N, 93.20 °W | Updated 11 seconds ago

Mostly Cloudy
Mostly Cloudy
79.1 °F
Feels Like 82 °F
N
6.0
Wind Variable Wind from SE
Gusts 17.0 mph

Today
High -- | Low -- °F
--% Chance of Precip.
Yesterday
High -- | Low -- °F
Precip. -- in
6:25 AM 8:04 PM
Waning Crescent, 13% visible
Pressure 29.86 in
Visibility 7.0 miles
Clouds Scattered Clouds 1400 ft
Mostly Cloudy 11000 ft
Heat Index 82 °F
Dew Point 72 °F
Humidity 81%
Rainfall 0.05 in
Snow Depth Not available.
UV 5 out of 12
Pollen 5.90 out of 12
Air Quality Not available.
Flu Activity Not available.
METAR KIFA 211815Z AUTO 15012G15KT 7SM SCT014 BKN110 28/22 A2986 RMK AO2 T02750219

More Conditions Fewer Conditions

Pressure 29.86 in
Visibility 7.0 miles
Clouds Scattered Clouds 1400 ft
Mostly Cloudy 11000 ft
Heat Index 82 °F
Dew Point 72 °F
Humidity 81%
Rainfall 0.05 in
Snow Depth Not available.
UV 5 out of 12
Pollen 5.90 out of 12
Air Quality Not available.
Flu Activity Not available.
METAR KIFA 211815Z AUTO 15012G15KT 7SM SCT014 BKN110 28/22 A2986 RMK AO2 T02750219

More Conditions Fewer Conditions

10-Day Weather Forecast

Almanac

Astronomy

Aug. 21, 2014 Rise Set
Actual Time 6:25 AM CDT 8:04 PM CDT
Civil Twilight 5:55 AM CDT 8:34 PM CDT
Nautical Twilight 5:19 AM CDT 9:10 PM CDT
Astronomical Twilight 4:40 AM CDT 9:48 PM CDT
Moon 2:54 AM CDT 5:35 PM CDT
Length of Visible Light 14h 38m
Length of Day
13h 38m
Tomorrow will be 2m 39s shorter.
Waning Crescent, 13% of the Moon is Illuminated
Today
Waning Crescent
Aug 25
New
Sep 2
First Quarter
Sep 8
Full
Sep 15
Last Quarter

Today's Extremes

State Highs State Lows

Community

WunderPhotos

Upload Photos

1,745,992 photos uploaded!

WunderBlogs® & News

Nearby

Snow Depth

Station Depth Elevation
No new snow has been reported.

Earthquake Activity

City Distance Mag. Time & Date
No recent earthquake activity has been reported nearby.
Minimum magnitude displayed is 2.5.

Coastal Water Temperatures

Place Temperature
No Stations Reporting

Nearby Weather Stations